This is the latest recevied weather packets stored in our database for station/object OE5ERN-10. If no packets are shown the sender has not sent any weather packets the latest 10 day(s).
| Time | Temp. | Humidity | Pressure | Rain* | Wind** | Luminosity | Snow |
|---|---|---|---|---|---|---|---|
| 1777575342 | 7.78° C | 44% | 1031.8 hPa | 0 mm | - | - | - |
| 1777574442 | 8.33° C | 42% | 1031.7 hPa | 0 mm | - | - | - |
| 1777573542 | 9.44° C | 39% | 1031.5 hPa | 0 mm | - | - | - |
| 1777572642 | 10.56° C | 36% | 1031.5 hPa | 0 mm | - | - | - |
| 1777571742 | 12.78° C | 31% | 1031.3 hPa | 0 mm | - | - | - |
| 1777570842 | 15° C | 28% | 1031.2 hPa | 0 mm | - | - | - |
| 1777569942 | 15.56° C | 27% | 1030.9 hPa | 0 mm | - | - | - |
| 1777569042 | 16.11° C | 27% | 1030.9 hPa | 0 mm | - | - | - |
| 1777568143 | 16.11° C | 27% | 1030.9 hPa | 0 mm | - | - | - |
| 1777567243 | 16.11° C | 27% | 1030.8 hPa | 0 mm | - | - | - |
| 1777566343 | 15.56° C | 27% | 1031 hPa | 0 mm | - | - | - |
| 1777565443 | 16.11° C | 26% | 1031 hPa | 0 mm | - | - | - |
| 1777564543 | 16.11° C | 27% | 1031.1 hPa | 0 mm | - | - | - |
| 1777563643 | 16.11° C | 27% | 1031 hPa | 0 mm | - | - | - |
| 1777562743 | 15.56° C | 28% | 1031.2 hPa | 0 mm | - | - | - |
| 1777561843 | 16.11° C | 27% | 1031.3 hPa | 0 mm | - | - | - |
| 1777560943 | 16.11° C | 27% | 1031.4 hPa | 0 mm | - | - | - |
| 1777560043 | 16.11° C | 27% | 1031.5 hPa | 0 mm | - | - | - |
| 1777559143 | 16.11° C | 26% | 1031.5 hPa | 0 mm | - | - | - |
| 1777558243 | 16.11° C | 27% | 1031.5 hPa | 0 mm | - | - | - |
| 1777557343 | 16.11° C | 27% | 1031.7 hPa | 0 mm | - | - | - |
| 1777556443 | 15.56° C | 27% | 1031.7 hPa | 0 mm | - | - | - |
| 1777555543 | 15.56° C | 27% | 1031.8 hPa | 0 mm | - | - | - |
| 1777554643 | 15.56° C | 27% | 1032 hPa | 0 mm | - | - | - |
| 1777553743 | 15.56° C | 27% | 1032.2 hPa | 0 mm | - | - | - |
* Rain latest hour (hover to see other rain measurements)
** Current wind speed in m/s (hover to see current wind gust speed)